createdAt,value
2017-11-01T00:00:50.056Z,100415.53
2017-11-01T00:03:17.531Z,100417.66
2017-11-01T00:05:44.997Z,100417.25
2017-11-01T00:08:12.526Z,100418.42
2017-11-01T00:10:39.980Z,100415.34
2017-11-01T00:13:07.451Z,100411.14
2017-11-01T00:15:34.953Z,100405.98
2017-11-01T00:18:02.414Z,100406.83
2017-11-01T00:20:29.914Z,100403.07
2017-11-01T00:22:57.394Z,100403.07
2017-11-01T00:25:24.880Z,100403.83
2017-11-01T00:27:52.408Z,100404.77
2017-11-01T00:30:19.916Z,100401.84
2017-11-01T00:32:47.382Z,100397.57
2017-11-01T00:35:14.880Z,100400.09
2017-11-01T00:37:42.404Z,100399.28
2017-11-01T00:40:09.917Z,100395.05
2017-11-01T00:42:37.372Z,100396.63
2017-11-01T00:45:04.874Z,100396.14
2017-11-01T00:47:32.344Z,100394.80
2017-11-01T00:49:59.815Z,100398.20
2017-11-01T00:52:27.318Z,100393.89
2017-11-01T00:54:54.825Z,100390.44
2017-11-01T00:57:22.290Z,100382.82
2017-11-01T00:59:49.791Z,100386.26
2017-11-01T01:02:17.290Z,100387.90
2017-11-01T01:04:44.753Z,100388.06
2017-11-01T01:07:12.252Z,100384.06
2017-11-01T01:09:39.718Z,100380.81
2017-11-01T01:12:07.187Z,100382.95
2017-11-01T01:14:34.689Z,100383.77
2017-11-01T01:17:02.142Z,100378.48
2017-11-01T01:19:29.600Z,100376.56
2017-11-01T01:21:57.089Z,100380.66
2017-11-01T01:24:24.628Z,100383.25
2017-11-01T01:26:52.091Z,100381.91
2017-11-01T01:29:19.582Z,100384.45
2017-11-01T01:31:47.051Z,100378.69
2017-11-01T01:34:14.556Z,100379.25
2017-11-01T01:36:42.060Z,100377.58
2017-11-01T01:39:09.525Z,100372.49
2017-11-01T01:41:37.004Z,100373.53
2017-11-01T01:44:04.576Z,100374.52
2017-11-01T01:46:32.030Z,100374.58
2017-11-01T01:48:59.492Z,100375.26
2017-11-01T01:51:27.102Z,100372.89
2017-11-01T01:53:54.559Z,100375.26
2017-11-01T01:56:22.013Z,100374.53
2017-11-01T01:58:49.497Z,100378.89
2017-11-01T02:01:16.968Z,100376.28
2017-11-01T02:03:44.433Z,100368.77
2017-11-01T02:06:12.025Z,100370.72
2017-11-01T02:08:39.498Z,100372.51
2017-11-01T02:11:06.981Z,100375.40
2017-11-01T02:13:34.464Z,100371.88
2017-11-01T02:16:01.945Z,100373.07
2017-11-01T02:18:29.414Z,100375.13
2017-11-01T02:20:56.912Z,100374.17
2017-11-01T02:23:24.386Z,100373.66
2017-11-01T02:25:51.963Z,100373.17
2017-11-01T02:28:19.528Z,100371.08
2017-11-01T02:30:46.987Z,100363.95
2017-11-01T02:33:14.488Z,100370.30
2017-11-01T02:35:42.009Z,100365.69
2017-11-01T02:38:09.481Z,100360.86
2017-11-01T02:40:36.984Z,100371.39
2017-11-01T02:43:04.569Z,100364.80
2017-11-01T02:45:32.046Z,100367.56
2017-11-01T02:47:59.542Z,100363.75
2017-11-01T02:50:27.046Z,100366.05
2017-11-01T02:52:54.558Z,100368.11
2017-11-01T02:55:22.037Z,100370.58
2017-11-01T02:57:49.673Z,100370.58
2017-11-01T03:00:17.193Z,100365.49
2017-11-01T03:02:44.674Z,100366.52
2017-11-01T03:05:12.175Z,100367.59
2017-11-01T03:07:39.663Z,100365.92
2017-11-01T03:10:07.135Z,100364.80
2017-11-01T03:12:34.621Z,100357.81
2017-11-01T03:15:02.101Z,100365.29
2017-11-01T03:17:29.620Z,100363.95
2017-11-01T03:19:57.126Z,100360.19
2017-11-01T03:22:24.614Z,100368.62
2017-11-01T03:24:52.087Z,100364.72
2017-11-01T03:27:19.589Z,100361.31
2017-11-01T03:29:47.069Z,100359.20
2017-11-01T03:32:14.685Z,100358.48
2017-11-01T03:34:42.193Z,100358.16
2017-11-01T03:37:09.683Z,100364.16
2017-11-01T03:39:37.172Z,100356.30
2017-11-01T03:42:04.708Z,100355.45
2017-11-01T03:44:32.201Z,100356.14
2017-11-01T03:46:59.701Z,100354.45
2017-11-01T03:49:27.183Z,100354.04
2017-11-01T03:51:54.676Z,100352.94
2017-11-01T03:54:22.168Z,100350.75
2017-11-01T03:56:49.689Z,100355.47
2017-11-01T03:59:17.164Z,100356.77
2017-11-01T04:01:44.681Z,100344.61
2017-11-01T04:04:12.152Z,100347.76
2017-11-01T04:06:39.668Z,100345.83
2017-11-01T04:09:07.146Z,100346.95
2017-11-01T04:11:34.660Z,100345.83
2017-11-01T04:14:02.127Z,100353.11
2017-11-01T04:16:29.598Z,100343.39
2017-11-01T04:19:02.639Z,100332.03
2017-11-01T04:21:30.132Z,100335.43
2017-11-01T04:23:57.607Z,100337.09
2017-11-01T04:26:25.084Z,100332.52
2017-11-01T04:28:52.563Z,100334.98
2017-11-01T04:31:20.043Z,100339.69
2017-11-01T04:33:47.546Z,100335.37
2017-11-01T04:36:15.037Z,100323.55
2017-11-01T04:38:42.506Z,100327.72
2017-11-01T04:41:10.013Z,100321.90
2017-11-01T04:43:37.497Z,100321.89
2017-11-01T04:46:05.070Z,100317.59
2017-11-01T04:48:32.570Z,100319.19
2017-11-01T04:51:00.069Z,100318.91
2017-11-01T04:53:27.556Z,100315.63
2017-11-01T04:55:55.042Z,100318.20
2017-11-01T04:58:22.540Z,100313.39
2017-11-01T05:00:50.056Z,100315.44
2017-11-01T05:03:18.380Z,100312.97
2017-11-01T05:05:45.901Z,100313.31
2017-11-01T05:11:09.694Z,100308.55
2017-11-01T05:13:44.771Z,100308.19
2017-11-01T05:16:14.995Z,100309.19
2017-11-01T05:18:42.494Z,100307.94
2017-11-01T05:21:10.008Z,100310.42
2017-11-01T05:23:37.466Z,100305.91
2017-11-01T05:26:07.694Z,100311.41
2017-11-01T05:28:35.188Z,100300.27
2017-11-01T05:31:02.674Z,100299.53
2017-11-01T05:33:30.166Z,100306.61
2017-11-01T05:35:57.673Z,100311.73
2017-11-01T05:38:25.167Z,100315.67
2017-11-01T05:40:52.654Z,100313.45
2017-11-01T05:43:20.164Z,100318.30
2017-11-01T05:45:47.648Z,100316.97
2017-11-01T05:48:15.143Z,100329.50
2017-11-01T05:50:42.631Z,100324.52
2017-11-01T05:53:10.105Z,100325.27
2017-11-01T05:55:37.604Z,100326.88
2017-11-01T05:58:07.580Z,100331.55
2017-11-01T06:00:35.060Z,100331.91
2017-11-01T06:03:02.599Z,100341.47
2017-11-01T06:05:30.165Z,100339.72
2017-11-01T06:07:57.658Z,100339.14
2017-11-01T06:10:25.130Z,100336.12
2017-11-01T06:12:52.612Z,100333.23
2017-11-01T06:15:20.085Z,100337.93
2017-11-01T06:17:47.571Z,100336.22
2017-11-01T06:20:15.416Z,100341.89
2017-11-01T06:22:42.904Z,100343.21
2017-11-01T06:25:10.390Z,100339.87
2017-11-01T06:27:37.889Z,100348.45
2017-11-01T06:30:05.436Z,100348.67
2017-11-01T06:32:32.923Z,100349.27
2017-11-01T06:35:00.413Z,100348.72
2017-11-01T06:37:27.916Z,100356.11
2017-11-01T06:39:55.474Z,100353.27
2017-11-01T06:42:22.957Z,100354.61
2017-11-01T06:44:50.415Z,100363.62
2017-11-01T06:47:17.887Z,100360.73
2017-11-01T06:49:45.413Z,100356.19
2017-11-01T06:52:12.918Z,100361.75
2017-11-01T06:54:40.415Z,100352.55
2017-11-01T06:57:07.899Z,100359.06
2017-11-01T06:59:35.377Z,100354.12
2017-11-01T07:02:02.837Z,100358.57
2017-11-01T07:04:30.359Z,100356.48
2017-11-01T07:07:00.857Z,100359.13
2017-11-01T07:09:28.329Z,100360.52
2017-11-01T07:11:55.801Z,100357.11
2017-11-01T07:14:23.257Z,100355.06
2017-11-01T07:16:50.739Z,100356.36
2017-11-01T07:19:18.219Z,100354.34
2017-11-01T07:21:45.692Z,100353.64
2017-11-01T07:24:13.220Z,100357.93
2017-11-01T07:26:40.708Z,100356.64
2017-11-01T07:29:08.175Z,100358.33
2017-11-01T07:31:35.716Z,100361.37
2017-11-01T07:34:03.372Z,100368.25
2017-11-01T07:36:30.843Z,100353.75
2017-11-01T07:38:58.308Z,100352.56
2017-11-01T07:41:25.812Z,100354.27
2017-11-01T07:43:53.289Z,100360.21
2017-11-01T07:46:20.777Z,100358.97
2017-11-01T07:48:48.257Z,100357.32
2017-11-01T07:51:15.772Z,100360.69
2017-11-01T07:53:43.236Z,100356.02
2017-11-01T07:56:10.753Z,100353.48
2017-11-01T07:58:38.239Z,100351.39
2017-11-01T08:01:05.700Z,100344.18
2017-11-01T08:03:33.221Z,100342.03
2017-11-01T08:06:00.692Z,100346.73
2017-11-01T08:08:28.145Z,100348.44
2017-11-01T08:10:55.638Z,100346.73
2017-11-01T08:13:23.102Z,100342.06
2017-11-01T08:15:50.787Z,100344.16
2017-11-01T08:18:18.274Z,100342.90
2017-11-01T08:20:45.782Z,100345.44
2017-11-01T08:23:13.281Z,100350.98
2017-11-01T08:25:40.841Z,100342.00
2017-11-01T08:28:08.318Z,100347.55
2017-11-01T08:30:35.796Z,100346.63
2017-11-01T08:33:03.287Z,100354.33
2017-11-01T08:35:30.756Z,100344.56
2017-11-01T08:37:58.242Z,100346.75
2017-11-01T08:40:26.782Z,100339.50
2017-11-01T08:42:54.268Z,100331.33
2017-11-01T08:45:21.729Z,100335.58
2017-11-01T08:47:49.289Z,100328.31
2017-11-01T08:50:16.804Z,100333.02
2017-11-01T08:52:44.273Z,100335.14
2017-11-01T08:55:11.836Z,100335.55
2017-11-01T08:57:39.328Z,100336.81
2017-11-01T09:00:06.875Z,100337.53
2017-11-01T09:02:34.390Z,100331.41
2017-11-01T09:05:01.898Z,100339.70
2017-11-01T09:07:29.395Z,100328.62
2017-11-01T09:09:57.267Z,100335.51
2017-11-01T09:17:28.286Z,100323.89
2017-11-01T09:27:33.070Z,100321.01
2017-11-01T09:30:04.200Z,100328.09
2017-11-01T09:32:32.143Z,100327.22
2017-11-01T09:34:59.864Z,100312.73
2017-11-01T09:37:28.377Z,100314.33
2017-11-01T09:39:56.296Z,100310.44
2017-11-01T09:42:24.014Z,100309.24
2017-11-01T09:44:52.010Z,100308.78
2017-11-01T09:47:19.577Z,100311.55
2017-11-01T09:49:48.883Z,100305.14
2017-11-01T09:52:16.514Z,100308.56
2017-11-01T09:54:44.034Z,100295.73
2017-11-01T09:57:11.526Z,100297.75
2017-11-01T09:59:39.027Z,100292.37
2017-11-01T10:02:06.523Z,100293.20
2017-11-01T10:04:34.553Z,100293.77
2017-11-01T10:07:04.865Z,100284.92
2017-11-01T10:09:32.486Z,100282.30
2017-11-01T10:12:00.314Z,100272.47
2017-11-01T10:14:28.247Z,100260.95
2017-11-01T10:16:57.239Z,100264.29
2017-11-01T10:19:25.224Z,100254.62
2017-11-01T10:21:58.073Z,100253.66
2017-11-01T10:24:25.565Z,100258.10
2017-11-01T10:26:55.001Z,100256.36
2017-11-01T10:31:54.154Z,100248.17
2017-11-01T10:34:21.631Z,100245.64
2017-11-01T10:36:49.132Z,100241.72
2017-11-01T10:39:16.630Z,100235.59
2017-11-01T10:41:46.972Z,100231.61
2017-11-01T10:44:14.715Z,100226.48
2017-11-01T10:46:43.448Z,100232.93
2017-11-01T10:49:14.878Z,100225.36
2017-11-01T10:51:43.169Z,100217.50
2017-11-01T10:54:10.927Z,100221.13
2017-11-01T10:56:42.553Z,100215.14
2017-11-01T10:59:10.226Z,100208.30
2017-11-01T11:01:38.785Z,100193.95
2017-11-01T11:04:06.549Z,100220.06
2017-11-01T11:09:17.289Z,100188.94
2017-11-01T11:30:25.304Z,100187.08
2017-11-01T11:32:56.573Z,100188.86
2017-11-01T11:40:36.645Z,100176.10
2017-11-01T11:43:04.331Z,100177.20
2017-11-01T11:45:31.900Z,100177.58
2017-11-01T11:47:59.403Z,100165.91
2017-11-01T11:50:28.764Z,100161.51
2017-11-01T12:11:57.452Z,100151.94
2017-11-01T12:14:25.205Z,100139.58
2017-11-01T12:16:52.942Z,100145.69
2017-11-01T12:19:20.774Z,100147.20
2017-11-01T12:21:49.524Z,100155.65
2017-11-01T12:24:17.328Z,100134.34
2017-11-01T12:26:46.188Z,100134.77
2017-11-01T12:29:14.870Z,100145.87
2017-11-01T12:31:42.969Z,100149.42
2017-11-01T12:34:10.952Z,100150.41
2017-11-01T12:36:39.725Z,100152.52
2017-11-01T12:41:47.463Z,100162.17
2017-11-01T12:44:15.483Z,100136.45
2017-11-01T12:46:43.103Z,100146.59
2017-11-01T12:49:11.289Z,100125.46
2017-11-01T12:51:39.367Z,100129.25
2017-11-01T12:54:07.452Z,100137.70
2017-11-01T12:56:35.844Z,100126.11
2017-11-01T12:59:03.558Z,100120.68
2017-11-01T13:01:31.227Z,100125.37
2017-11-01T13:09:04.182Z,100126.80
2017-11-01T13:11:32.089Z,100122.58
2017-11-01T13:14:00.121Z,100120.82
2017-11-01T13:16:32.432Z,100110.03
2017-11-01T13:19:00.240Z,100115.06
2017-11-01T13:21:28.243Z,100106.91
2017-11-01T13:23:56.286Z,100106.21
2017-11-01T13:28:56.522Z,100116.27
2017-11-01T13:31:24.797Z,100108.59
2017-11-01T13:33:52.898Z,100123.62
2017-11-01T13:36:21.294Z,100108.27
2017-11-01T13:41:24.999Z,100106.62
2017-11-01T13:43:52.723Z,100106.97
2017-11-01T13:48:53.359Z,100097.60
2017-11-01T13:51:25.055Z,100132.20
2017-11-01T13:53:53.658Z,100090.90
2017-11-01T13:56:21.483Z,100092.16
2017-11-01T13:58:49.632Z,100097.58
2017-11-01T14:01:17.706Z,100125.06
2017-11-01T14:03:45.680Z,100096.34
2017-11-01T14:06:13.971Z,100087.88
2017-11-01T14:08:41.758Z,100093.44
2017-11-01T14:11:09.386Z,100088.36
2017-11-01T14:13:37.090Z,100098.55
2017-11-01T14:16:06.504Z,100086.63
2017-11-01T14:18:34.061Z,100090.07
2017-11-01T14:21:01.805Z,100083.69
2017-11-01T14:23:30.278Z,100076.91
2017-11-01T14:25:58.336Z,100077.73
2017-11-01T14:28:25.836Z,100090.14
2017-11-01T14:30:53.823Z,100075.18
2017-11-01T14:33:21.362Z,100085.38
2017-11-01T14:35:51.273Z,100086.30
2017-11-01T14:38:18.978Z,100093.22
2017-11-01T14:40:47.420Z,100126.14
2017-11-01T14:43:15.262Z,100097.52
2017-11-01T14:45:43.379Z,100083.47
2017-11-01T14:50:43.265Z,100077.07
2017-11-01T14:53:11.234Z,100079.59
2017-11-01T14:55:39.229Z,100080.89
2017-11-01T14:58:07.619Z,100088.61
2017-11-01T15:00:35.474Z,100077.56
2017-11-01T15:03:03.182Z,100080.22
2017-11-01T15:05:30.714Z,100072.09
2017-11-01T15:07:58.260Z,100087.45
2017-11-01T15:10:26.138Z,100084.09
2017-11-01T15:12:53.675Z,100092.61
2017-11-01T15:15:24.911Z,100091.32
2017-11-01T15:17:52.702Z,100101.55
2017-11-01T15:20:20.219Z,100095.17
2017-11-01T15:22:48.358Z,100101.59
2017-11-01T15:25:16.331Z,100093.05
2017-11-01T15:27:44.371Z,100098.61
2017-11-01T15:30:12.923Z,100090.09
2017-11-01T15:32:40.743Z,100084.94
2017-11-01T15:35:09.066Z,100085.81
2017-11-01T15:37:37.369Z,100075.16
2017-11-01T15:40:05.586Z,100076.44
2017-11-01T15:42:33.267Z,100079.40
2017-11-01T15:45:00.973Z,100062.38
2017-11-01T15:47:28.622Z,100070.47
2017-11-01T15:49:57.114Z,100055.98
2017-11-01T15:52:25.253Z,100070.02
2017-11-01T15:54:52.842Z,100064.47
2017-11-01T15:57:21.343Z,100071.72
2017-11-01T15:59:49.454Z,100072.13
2017-11-01T16:02:17.475Z,100082.34
2017-11-01T16:07:17.647Z,100092.17
2017-11-01T16:09:48.435Z,100098.58
2017-11-01T16:24:34.865Z,100093.92
2017-11-01T16:27:02.572Z,100098.17
2017-11-01T16:29:34.466Z,100090.92
2017-11-01T16:32:03.692Z,100086.23
2017-11-01T16:59:35.976Z,100102.34
2017-11-01T17:02:13.104Z,100106.61
2017-11-01T17:04:44.260Z,100110.05
2017-11-01T17:20:17.346Z,100104.87
2017-11-01T17:25:59.954Z,100096.66
2017-11-01T17:28:32.526Z,100085.16
2017-11-01T17:31:00.068Z,100084.70
2017-11-01T17:33:28.557Z,100090.63
2017-11-01T17:38:34.158Z,100071.44
2017-11-01T17:41:02.780Z,100065.41
2017-11-01T17:46:05.551Z,100057.70
2017-11-01T17:48:33.097Z,100064.13
2017-11-01T17:51:00.836Z,100069.23
2017-11-01T17:58:45.471Z,100071.72
2017-11-01T18:01:15.944Z,100070.01
2017-11-01T18:06:35.472Z,100075.52
2017-11-01T18:22:06.530Z,100064.47
2017-11-01T18:24:34.029Z,100056.76
2017-11-01T18:27:01.715Z,100060.17
2017-11-01T18:29:35.742Z,100069.16
2017-11-01T18:32:07.406Z,100057.19
2017-11-01T18:34:35.003Z,100052.09
2017-11-01T18:39:47.824Z,100041.79
2017-11-01T18:42:25.325Z,100041.84
2017-11-01T18:44:56.843Z,100041.02
2017-11-01T18:47:24.423Z,100033.28
2017-11-01T18:49:53.079Z,100029.81
2017-11-01T18:52:20.627Z,100028.62
2017-11-01T18:54:48.196Z,100035.05
2017-11-01T18:57:16.217Z,100029.44
2017-11-01T18:59:44.697Z,100028.11
2017-11-01T19:02:12.409Z,100023.02
2017-11-01T19:04:40.129Z,100021.28
2017-11-01T19:07:07.739Z,100023.38
2017-11-01T19:09:41.074Z,100022.90
2017-11-01T19:12:08.649Z,100031.03
2017-11-01T19:14:36.169Z,100030.61
2017-11-01T19:17:03.728Z,100027.63
2017-11-01T19:19:33.118Z,100031.89
2017-11-01T19:22:00.691Z,100025.03
2017-11-01T19:24:28.481Z,100042.48
2017-11-01T19:26:56.597Z,100025.44
2017-11-01T19:29:24.414Z,100031.38
2017-11-01T19:31:55.190Z,100039.52
2017-11-01T19:34:23.014Z,100027.94
2017-11-01T19:36:57.677Z,100027.94
2017-11-01T19:39:25.194Z,100020.77
2017-11-01T19:41:53.312Z,100028.05
2017-11-01T19:47:19.700Z,100015.61
2017-11-01T19:49:49.459Z,100022.42
2017-11-01T19:52:17.028Z,100025.83
2017-11-01T19:54:45.699Z,100016.47
2017-11-01T19:57:14.189Z,100009.64
2017-11-01T19:59:41.712Z,100017.34
2017-11-01T20:02:09.236Z,100025.06
2017-11-01T20:04:36.719Z,100019.97
2017-11-01T20:07:04.252Z,100023.87
2017-11-01T20:09:31.749Z,100023.36
2017-11-01T20:11:59.253Z,100012.75
2017-11-01T20:14:26.798Z,100017.46
2017-11-01T20:16:54.262Z,100016.27
2017-11-01T20:19:21.776Z,100015.84
2017-11-01T20:21:49.280Z,100025.23
2017-11-01T20:24:16.743Z,100002.59
2017-11-01T20:26:44.219Z,100009.84
2017-11-01T20:29:11.692Z,100011.62
2017-11-01T20:31:39.706Z,100014.61
2017-11-01T20:34:07.287Z,100018.05
2017-11-01T20:36:34.809Z,100007.78
2017-11-01T20:39:02.323Z,100000.53
2017-11-01T20:41:30.242Z,100004.38
2017-11-01T20:43:57.762Z,100006.91
2017-11-01T20:46:25.271Z,99994.93
2017-11-01T20:48:52.772Z,100013.39
2017-11-01T20:51:20.648Z,99998.48
2017-11-01T20:53:48.257Z,99988.34
2017-11-01T20:56:15.914Z,99985.38
2017-11-01T20:58:43.409Z,99991.00
2017-11-01T21:01:11.226Z,99992.34
2017-11-01T21:03:38.761Z,99988.41
2017-11-01T21:06:06.295Z,99991.05
2017-11-01T21:08:33.814Z,100001.34
2017-11-01T21:11:01.341Z,99999.23
2017-11-01T21:13:30.990Z,99995.42
2017-11-01T21:15:58.470Z,99992.45
2017-11-01T21:18:25.993Z,99992.53
2017-11-01T21:20:54.339Z,99991.70
2017-11-01T21:23:21.908Z,99988.73
2017-11-01T21:28:23.883Z,99977.77
2017-11-01T21:30:51.593Z,99973.92
2017-11-01T21:33:19.239Z,99974.36
2017-11-01T21:35:46.732Z,99968.81
2017-11-01T21:38:14.288Z,99972.66
2017-11-01T21:40:42.156Z,99974.85
2017-11-01T21:43:09.651Z,99980.83
2017-11-01T21:45:37.378Z,99978.33
2017-11-01T21:48:05.095Z,99977.44
2017-11-01T21:50:32.617Z,99987.28
2017-11-01T21:53:00.191Z,99983.96
2017-11-01T21:55:27.722Z,99984.41
2017-11-01T21:57:55.801Z,99983.58
2017-11-01T22:00:23.988Z,99978.45
2017-11-01T22:02:51.463Z,99977.95
2017-11-01T22:05:19.855Z,99982.61
2017-11-01T22:07:47.443Z,99976.64
2017-11-01T22:10:14.910Z,99983.34
2017-11-01T22:12:42.890Z,99982.36
2017-11-01T22:15:12.062Z,99975.93
2017-11-01T22:17:40.021Z,99972.95
2017-11-01T22:20:07.623Z,99974.65
2017-11-01T22:22:35.380Z,99978.04
2017-11-01T22:25:02.866Z,99974.16
2017-11-01T22:27:30.328Z,99976.76
2017-11-01T22:29:57.839Z,99972.09
2017-11-01T22:32:26.869Z,99977.24
2017-11-01T22:34:54.553Z,99973.35
2017-11-01T22:37:22.550Z,99981.02
2017-11-01T22:39:50.797Z,99978.12
2017-11-01T22:42:18.577Z,99974.80
2017-11-01T22:44:46.108Z,99970.96
2017-11-01T22:47:15.487Z,99977.38
2017-11-01T22:49:43.017Z,99974.43
2017-11-01T22:52:10.522Z,99971.08
2017-11-01T22:54:38.021Z,99972.45
2017-11-01T22:57:05.484Z,99966.56
2017-11-01T22:59:33.003Z,99962.80
2017-11-01T23:02:00.518Z,99962.41
2017-11-01T23:04:28.048Z,99961.58
2017-11-01T23:06:59.531Z,99968.42
2017-11-01T23:09:27.533Z,99955.66
2017-11-01T23:11:55.043Z,99951.41
2017-11-01T23:14:22.777Z,99953.95
2017-11-01T23:16:50.252Z,99947.94
2017-11-01T23:19:17.740Z,99946.63
2017-11-01T23:21:45.205Z,99946.17
2017-11-01T23:24:12.695Z,99945.30
2017-11-01T23:26:40.185Z,99946.52
2017-11-01T23:29:07.666Z,99940.53
2017-11-01T23:31:35.128Z,99939.95
2017-11-01T23:34:02.604Z,99939.81
2017-11-01T23:36:30.086Z,99932.58
2017-11-01T23:38:57.569Z,99928.77
2017-11-01T23:41:25.052Z,99929.59
2017-11-01T23:43:52.517Z,99928.78
2017-11-01T23:46:19.984Z,99918.16
2017-11-01T23:48:47.436Z,99924.09
2017-11-01T23:51:14.909Z,99913.88
2017-11-01T23:53:42.365Z,99914.75
2017-11-01T23:56:09.840Z,99912.62
2017-11-01T23:58:37.355Z,99912.23
